sensor_id;sensor_type;location;lat;lon;timestamp;P1;durP1;ratioP1;P2;durP2;ratioP2
39970;SDS011;35425;51.142;17.178;2023-03-14T00:00:20;2.88;;;2.30;;
39970;SDS011;35425;51.142;17.178;2023-03-14T00:02:51;2.45;;;2.00;;
39970;SDS011;35425;51.142;17.178;2023-03-14T00:05:17;2.38;;;1.80;;
39970;SDS011;35425;51.142;17.178;2023-03-14T00:07:44;2.83;;;2.05;;
39970;SDS011;35425;51.142;17.178;2023-03-14T00:10:12;2.58;;;2.00;;
39970;SDS011;35425;51.142;17.178;2023-03-14T00:12:39;2.53;;;2.20;;
39970;SDS011;35425;51.142;17.178;2023-03-14T00:15:06;2.90;;;2.40;;
39970;SDS011;35425;51.142;17.178;2023-03-14T00:17:33;2.72;;;2.00;;
39970;SDS011;35425;51.142;17.178;2023-03-14T00:20:01;2.83;;;2.10;;
39970;SDS011;35425;51.142;17.178;2023-03-14T00:22:31;3.33;;;1.90;;
39970;SDS011;35425;51.142;17.178;2023-03-14T00:24:57;2.58;;;2.05;;
39970;SDS011;35425;51.142;17.178;2023-03-14T00:27:24;2.72;;;2.15;;
39970;SDS011;35425;51.142;17.178;2023-03-14T00:29:50;2.80;;;2.05;;
39970;SDS011;35425;51.142;17.178;2023-03-14T00:32:17;2.80;;;2.10;;
39970;SDS011;35425;51.142;17.178;2023-03-14T00:34:43;2.28;;;1.85;;
39970;SDS011;35425;51.142;17.178;2023-03-14T00:37:10;2.58;;;2.30;;
39970;SDS011;35425;51.142;17.178;2023-03-14T00:39:36;3.78;;;2.17;;
39970;SDS011;35425;51.142;17.178;2023-03-14T00:42:03;3.17;;;2.30;;
39970;SDS011;35425;51.142;17.178;2023-03-14T00:44:29;2.92;;;2.25;;
39970;SDS011;35425;51.142;17.178;2023-03-14T00:46:56;3.00;;;2.30;;
39970;SDS011;35425;51.142;17.178;2023-03-14T00:49:23;2.58;;;2.33;;
39970;SDS011;35425;51.142;17.178;2023-03-14T00:51:49;3.35;;;2.35;;
39970;SDS011;35425;51.142;17.178;2023-03-14T00:54:20;2.50;;;2.30;;
39970;SDS011;35425;51.142;17.178;2023-03-14T00:56:47;2.58;;;2.15;;
39970;SDS011;35425;51.142;17.178;2023-03-14T00:59:15;3.60;;;2.45;;
39970;SDS011;35425;51.142;17.178;2023-03-14T01:01:41;2.88;;;2.30;;
39970;SDS011;35425;51.142;17.178;2023-03-14T01:04:08;3.22;;;2.47;;
39970;SDS011;35425;51.142;17.178;2023-03-14T01:06:34;3.00;;;2.55;;
39970;SDS011;35425;51.142;17.178;2023-03-14T01:09:01;2.85;;;2.47;;
39970;SDS011;35425;51.142;17.178;2023-03-14T01:11:30;3.42;;;2.55;;
39970;SDS011;35425;51.142;17.178;2023-03-14T01:13:56;3.20;;;2.40;;
39970;SDS011;35425;51.142;17.178;2023-03-14T01:16:24;3.05;;;2.30;;
39970;SDS011;35425;51.142;17.178;2023-03-14T01:18:51;3.33;;;2.47;;
39970;SDS011;35425;51.142;17.178;2023-03-14T01:21:19;3.25;;;2.42;;
39970;SDS011;35425;51.142;17.178;2023-03-14T01:23:46;3.33;;;2.65;;
39970;SDS011;35425;51.142;17.178;2023-03-14T01:26:13;2.85;;;2.58;;
39970;SDS011;35425;51.142;17.178;2023-03-14T01:28:40;3.08;;;2.38;;
39970;SDS011;35425;51.142;17.178;2023-03-14T01:31:08;3.22;;;2.50;;
39970;SDS011;35425;51.142;17.178;2023-03-14T01:33:35;2.97;;;2.50;;
39970;SDS011;35425;51.142;17.178;2023-03-14T01:36:02;3.60;;;2.60;;
39970;SDS011;35425;51.142;17.178;2023-03-14T01:38:29;3.40;;;2.50;;
39970;SDS011;35425;51.142;17.178;2023-03-14T01:40:56;3.30;;;2.33;;
39970;SDS011;35425;51.142;17.178;2023-03-14T01:43:23;3.35;;;2.30;;
39970;SDS011;35425;51.142;17.178;2023-03-14T01:48:35;3.63;;;2.77;;
39970;SDS011;35425;51.142;17.178;2023-03-14T01:51:04;3.13;;;2.50;;
39970;SDS011;35425;51.142;17.178;2023-03-14T01:53:31;3.33;;;2.42;;
39970;SDS011;35425;51.142;17.178;2023-03-14T01:55:58;4.13;;;3.00;;
39970;SDS011;35425;51.142;17.178;2023-03-14T01:58:25;3.92;;;2.92;;
39970;SDS011;35425;51.142;17.178;2023-03-14T02:00:53;3.63;;;2.60;;
39970;SDS011;35425;51.142;17.178;2023-03-14T02:03:20;3.70;;;2.70;;
39970;SDS011;35425;51.142;17.178;2023-03-14T02:05:48;2.72;;;2.38;;
39970;SDS011;35425;51.142;17.178;2023-03-14T02:08:17;3.00;;;2.53;;
39970;SDS011;35425;51.142;17.178;2023-03-14T02:10:45;3.20;;;2.53;;
39970;SDS011;35425;51.142;17.178;2023-03-14T02:13:12;2.80;;;2.50;;
39970;SDS011;35425;51.142;17.178;2023-03-14T02:15:39;3.70;;;2.85;;
39970;SDS011;35425;51.142;17.178;2023-03-14T02:18:05;3.78;;;3.03;;
39970;SDS011;35425;51.142;17.178;2023-03-14T02:23:12;3.25;;;2.67;;
39970;SDS011;35425;51.142;17.178;2023-03-14T02:25:49;3.38;;;2.58;;
39970;SDS011;35425;51.142;17.178;2023-03-14T02:28:17;3.30;;;2.55;;
39970;SDS011;35425;51.142;17.178;2023-03-14T02:30:43;3.40;;;2.70;;
39970;SDS011;35425;51.142;17.178;2023-03-14T02:33:11;3.95;;;2.80;;
39970;SDS011;35425;51.142;17.178;2023-03-14T02:35:43;3.65;;;2.72;;
39970;SDS011;35425;51.142;17.178;2023-03-14T02:38:33;3.80;;;2.75;;
39970;SDS011;35425;51.142;17.178;2023-03-14T02:40:57;3.67;;;2.33;;
39970;SDS011;35425;51.142;17.178;2023-03-14T02:43:23;3.35;;;2.88;;
39970;SDS011;35425;51.142;17.178;2023-03-14T02:45:50;2.85;;;2.33;;
39970;SDS011;35425;51.142;17.178;2023-03-14T02:48:39;3.22;;;2.72;;
39970;SDS011;35425;51.142;17.178;2023-03-14T02:51:03;3.53;;;2.97;;
39970;SDS011;35425;51.142;17.178;2023-03-14T02:53:31;4.00;;;2.75;;
39970;SDS011;35425;51.142;17.178;2023-03-14T02:55:59;3.70;;;2.90;;
39970;SDS011;35425;51.142;17.178;2023-03-14T02:58:26;3.90;;;2.85;;
39970;SDS011;35425;51.142;17.178;2023-03-14T03:00:52;3.22;;;2.60;;
39970;SDS011;35425;51.142;17.178;2023-03-14T03:03:19;2.75;;;2.47;;
39970;SDS011;35425;51.142;17.178;2023-03-14T03:05:53;3.53;;;2.50;;
39970;SDS011;35425;51.142;17.178;2023-03-14T03:08:20;3.33;;;2.80;;
39970;SDS011;35425;51.142;17.178;2023-03-14T03:10:47;3.17;;;2.58;;
39970;SDS011;35425;51.142;17.178;2023-03-14T03:13:14;3.80;;;2.80;;
39970;SDS011;35425;51.142;17.178;2023-03-14T03:15:41;3.80;;;2.80;;
39970;SDS011;35425;51.142;17.178;2023-03-14T03:18:07;4.00;;;2.45;;
39970;SDS011;35425;51.142;17.178;2023-03-14T03:20:34;3.30;;;2.35;;
39970;SDS011;35425;51.142;17.178;2023-03-14T03:23:00;2.88;;;2.20;;
39970;SDS011;35425;51.142;17.178;2023-03-14T03:25:27;3.35;;;2.63;;
39970;SDS011;35425;51.142;17.178;2023-03-14T03:27:53;2.60;;;2.38;;
39970;SDS011;35425;51.142;17.178;2023-03-14T03:30:20;2.42;;;2.10;;
39970;SDS011;35425;51.142;17.178;2023-03-14T03:32:46;2.78;;;2.20;;
39970;SDS011;35425;51.142;17.178;2023-03-14T03:35:13;3.25;;;2.30;;
39970;SDS011;35425;51.142;17.178;2023-03-14T03:37:40;2.30;;;2.03;;
39970;SDS011;35425;51.142;17.178;2023-03-14T03:40:06;2.30;;;1.75;;
39970;SDS011;35425;51.142;17.178;2023-03-14T03:42:33;1.95;;;1.75;;
39970;SDS011;35425;51.142;17.178;2023-03-14T03:45:00;3.03;;;2.20;;
39970;SDS011;35425;51.142;17.178;2023-03-14T03:47:27;2.20;;;2.00;;
39970;SDS011;35425;51.142;17.178;2023-03-14T03:49:53;2.53;;;1.70;;
39970;SDS011;35425;51.142;17.178;2023-03-14T03:52:20;2.33;;;1.73;;
39970;SDS011;35425;51.142;17.178;2023-03-14T03:54:46;1.95;;;1.70;;
39970;SDS011;35425;51.142;17.178;2023-03-14T03:57:13;2.30;;;1.85;;
39970;SDS011;35425;51.142;17.178;2023-03-14T03:59:39;2.17;;;1.80;;
39970;SDS011;35425;51.142;17.178;2023-03-14T04:02:07;3.05;;;2.42;;
39970;SDS011;35425;51.142;17.178;2023-03-14T04:04:34;2.67;;;2.17;;
39970;SDS011;35425;51.142;17.178;2023-03-14T04:07:01;2.40;;;2.08;;
39970;SDS011;35425;51.142;17.178;2023-03-14T04:09:28;2.35;;;1.80;;
39970;SDS011;35425;51.142;17.178;2023-03-14T04:11:54;2.53;;;2.20;;
39970;SDS011;35425;51.142;17.178;2023-03-14T04:14:21;2.42;;;2.00;;
39970;SDS011;35425;51.142;17.178;2023-03-14T04:16:47;2.17;;;1.73;;
39970;SDS011;35425;51.142;17.178;2023-03-14T04:19:14;2.17;;;1.98;;
39970;SDS011;35425;51.142;17.178;2023-03-14T04:21:40;2.20;;;2.00;;
39970;SDS011;35425;51.142;17.178;2023-03-14T04:24:10;2.20;;;2.00;;
39970;SDS011;35425;51.142;17.178;2023-03-14T04:26:37;2.38;;;2.10;;
39970;SDS011;35425;51.142;17.178;2023-03-14T04:29:03;2.20;;;1.83;;
39970;SDS011;35425;51.142;17.178;2023-03-14T04:31:30;2.63;;;1.90;;
39970;SDS011;35425;51.142;17.178;2023-03-14T04:33:56;1.95;;;1.75;;
39970;SDS011;35425;51.142;17.178;2023-03-14T04:36:23;1.85;;;1.67;;
39970;SDS011;35425;51.142;17.178;2023-03-14T04:38:49;1.60;;;1.50;;
39970;SDS011;35425;51.142;17.178;2023-03-14T04:41:16;2.75;;;2.00;;
39970;SDS011;35425;51.142;17.178;2023-03-14T04:43:42;2.45;;;1.92;;
39970;SDS011;35425;51.142;17.178;2023-03-14T04:46:09;1.88;;;1.63;;
39970;SDS011;35425;51.142;17.178;2023-03-14T04:48:35;2.40;;;1.98;;
39970;SDS011;35425;51.142;17.178;2023-03-14T04:51:03;2.63;;;1.77;;
39970;SDS011;35425;51.142;17.178;2023-03-14T04:53:30;2.67;;;1.83;;
39970;SDS011;35425;51.142;17.178;2023-03-14T04:55:58;1.85;;;1.65;;
39970;SDS011;35425;51.142;17.178;2023-03-14T04:58:24;2.35;;;1.83;;
39970;SDS011;35425;51.142;17.178;2023-03-14T05:00:51;1.92;;;1.70;;
39970;SDS011;35425;51.142;17.178;2023-03-14T05:03:17;1.92;;;1.55;;
39970;SDS011;35425;51.142;17.178;2023-03-14T05:05:44;1.80;;;1.50;;
39970;SDS011;35425;51.142;17.178;2023-03-14T05:08:11;1.73;;;1.60;;
39970;SDS011;35425;51.142;17.178;2023-03-14T05:10:37;2.22;;;1.63;;
39970;SDS011;35425;51.142;17.178;2023-03-14T05:13:04;2.10;;;1.60;;
39970;SDS011;35425;51.142;17.178;2023-03-14T05:15:30;1.83;;;1.50;;
39970;SDS011;35425;51.142;17.178;2023-03-14T05:17:57;2.20;;;1.58;;
39970;SDS011;35425;51.142;17.178;2023-03-14T05:20:23;1.55;;;1.45;;
39970;SDS011;35425;51.142;17.178;2023-03-14T05:22:50;1.67;;;1.42;;
39970;SDS011;35425;51.142;17.178;2023-03-14T05:25:16;1.65;;;1.50;;
39970;SDS011;35425;51.142;17.178;2023-03-14T05:27:43;1.30;;;1.20;;
39970;SDS011;35425;51.142;17.178;2023-03-14T05:30:09;1.90;;;1.30;;
39970;SDS011;35425;51.142;17.178;2023-03-14T05:32:36;1.50;;;1.40;;
39970;SDS011;35425;51.142;17.178;2023-03-14T05:35:02;1.58;;;1.48;;
39970;SDS011;35425;51.142;17.178;2023-03-14T05:37:29;1.92;;;1.58;;
39970;SDS011;35425;51.142;17.178;2023-03-14T05:39:55;1.60;;;1.50;;
39970;SDS011;35425;51.142;17.178;2023-03-14T05:42:22;1.42;;;1.10;;
39970;SDS011;35425;51.142;17.178;2023-03-14T05:44:48;1.52;;;1.40;;
39970;SDS011;35425;51.142;17.178;2023-03-14T05:47:15;1.50;;;1.40;;
39970;SDS011;35425;51.142;17.178;2023-03-14T05:49:41;1.23;;;1.00;;
39970;SDS011;35425;51.142;17.178;2023-03-14T05:52:08;1.60;;;1.35;;
39970;SDS011;35425;51.142;17.178;2023-03-14T05:54:34;1.45;;;1.30;;
39970;SDS011;35425;51.142;17.178;2023-03-14T05:57:01;1.35;;;1.15;;
39970;SDS011;35425;51.142;17.178;2023-03-14T05:59:27;1.58;;;1.20;;
39970;SDS011;35425;51.142;17.178;2023-03-14T06:01:53;2.10;;;1.30;;
39970;SDS011;35425;51.142;17.178;2023-03-14T06:04:20;1.63;;;1.48;;
39970;SDS011;35425;51.142;17.178;2023-03-14T06:06:47;1.15;;;1.00;;
39970;SDS011;35425;51.142;17.178;2023-03-14T06:09:13;1.50;;;1.35;;
39970;SDS011;35425;51.142;17.178;2023-03-14T06:11:39;1.52;;;1.42;;
39970;SDS011;35425;51.142;17.178;2023-03-14T06:14:06;1.90;;;1.50;;
39970;SDS011;35425;51.142;17.178;2023-03-14T06:16:32;1.67;;;1.48;;
39970;SDS011;35425;51.142;17.178;2023-03-14T06:18:59;1.63;;;1.20;;
39970;SDS011;35425;51.142;17.178;2023-03-14T06:21:25;1.23;;;1.13;;
39970;SDS011;35425;51.142;17.178;2023-03-14T06:23:52;1.98;;;1.30;;
39970;SDS011;35425;51.142;17.178;2023-03-14T06:26:18;1.17;;;1.08;;
39970;SDS011;35425;51.142;17.178;2023-03-14T06:28:45;1.60;;;1.40;;
39970;SDS011;35425;51.142;17.178;2023-03-14T06:31:11;1.60;;;1.17;;
39970;SDS011;35425;51.142;17.178;2023-03-14T06:33:38;1.48;;;1.30;;
39970;SDS011;35425;51.142;17.178;2023-03-14T06:36:04;1.98;;;1.55;;
39970;SDS011;35425;51.142;17.178;2023-03-14T06:38:31;1.60;;;1.27;;
39970;SDS011;35425;51.142;17.178;2023-03-14T06:41:02;1.42;;;1.33;;
39970;SDS011;35425;51.142;17.178;2023-03-14T06:43:28;1.45;;;1.30;;
39970;SDS011;35425;51.142;17.178;2023-03-14T06:45:55;1.25;;;1.10;;
39970;SDS011;35425;51.142;17.178;2023-03-14T06:48:21;1.83;;;1.10;;
39970;SDS011;35425;51.142;17.178;2023-03-14T06:50:48;1.55;;;1.35;;
39970;SDS011;35425;51.142;17.178;2023-03-14T06:53:15;1.98;;;1.40;;
39970;SDS011;35425;51.142;17.178;2023-03-14T06:55:41;1.63;;;1.40;;
39970;SDS011;35425;51.142;17.178;2023-03-14T06:58:09;1.80;;;1.30;;
39970;SDS011;35425;51.142;17.178;2023-03-14T07:00:35;1.73;;;1.42;;
39970;SDS011;35425;51.142;17.178;2023-03-14T07:03:02;1.50;;;1.20;;
39970;SDS011;35425;51.142;17.178;2023-03-14T07:05:29;1.98;;;1.30;;
39970;SDS011;35425;51.142;17.178;2023-03-14T07:07:55;2.00;;;1.50;;
39970;SDS011;35425;51.142;17.178;2023-03-14T07:10:22;1.40;;;1.30;;
39970;SDS011;35425;51.142;17.178;2023-03-14T07:12:48;1.40;;;1.20;;
39970;SDS011;35425;51.142;17.178;2023-03-14T07:15:15;1.67;;;1.27;;
39970;SDS011;35425;51.142;17.178;2023-03-14T07:17:44;1.38;;;1.23;;
39970;SDS011;35425;51.142;17.178;2023-03-14T07:20:11;2.13;;;1.38;;
39970;SDS011;35425;51.142;17.178;2023-03-14T07:22:37;1.98;;;1.20;;
39970;SDS011;35425;51.142;17.178;2023-03-14T07:25:04;1.83;;;1.35;;
39970;SDS011;35425;51.142;17.178;2023-03-14T07:27:31;1.48;;;1.15;;
39970;SDS011;35425;51.142;17.178;2023-03-14T07:29:57;1.65;;;1.20;;
39970;SDS011;35425;51.142;17.178;2023-03-14T07:32:23;1.45;;;1.35;;
39970;SDS011;35425;51.142;17.178;2023-03-14T07:34:50;1.85;;;1.27;;
39970;SDS011;35425;51.142;17.178;2023-03-14T07:37:16;1.33;;;1.05;;
39970;SDS011;35425;51.142;17.178;2023-03-14T07:39:43;1.50;;;1.10;;
39970;SDS011;35425;51.142;17.178;2023-03-14T07:42:09;1.70;;;1.30;;
39970;SDS011;35425;51.142;17.178;2023-03-14T07:44:37;1.63;;;1.05;;
39970;SDS011;35425;51.142;17.178;2023-03-14T07:47:03;1.70;;;1.20;;
39970;SDS011;35425;51.142;17.178;2023-03-14T07:49:30;1.70;;;1.42;;
39970;SDS011;35425;51.142;17.178;2023-03-14T07:51:56;1.20;;;1.10;;
39970;SDS011;35425;51.142;17.178;2023-03-14T07:54:23;1.70;;;1.15;;
39970;SDS011;35425;51.142;17.178;2023-03-14T07:56:51;1.55;;;1.27;;
39970;SDS011;35425;51.142;17.178;2023-03-14T07:59:18;1.67;;;1.23;;
39970;SDS011;35425;51.142;17.178;2023-03-14T08:01:44;2.28;;;1.60;;
39970;SDS011;35425;51.142;17.178;2023-03-14T08:04:11;2.30;;;1.88;;
39970;SDS011;35425;51.142;17.178;2023-03-14T08:06:37;2.30;;;1.83;;
39970;SDS011;35425;51.142;17.178;2023-03-14T08:09:04;2.30;;;2.03;;
39970;SDS011;35425;51.142;17.178;2023-03-14T08:11:30;3.08;;;1.90;;
39970;SDS011;35425;51.142;17.178;2023-03-14T08:13:57;2.63;;;1.60;;
39970;SDS011;35425;51.142;17.178;2023-03-14T08:16:23;2.20;;;1.73;;
39970;SDS011;35425;51.142;17.178;2023-03-14T08:18:50;2.55;;;1.80;;
39970;SDS011;35425;51.142;17.178;2023-03-14T08:21:17;2.67;;;1.85;;
39970;SDS011;35425;51.142;17.178;2023-03-14T08:23:43;2.50;;;1.65;;
39970;SDS011;35425;51.142;17.178;2023-03-14T08:26:10;2.72;;;1.90;;
39970;SDS011;35425;51.142;17.178;2023-03-14T08:28:36;1.90;;;1.75;;
39970;SDS011;35425;51.142;17.178;2023-03-14T08:31:03;2.00;;;1.60;;
39970;SDS011;35425;51.142;17.178;2023-03-14T08:33:29;2.33;;;1.80;;
39970;SDS011;35425;51.142;17.178;2023-03-14T08:35:57;2.55;;;1.80;;
39970;SDS011;35425;51.142;17.178;2023-03-14T08:38:23;1.95;;;1.63;;
39970;SDS011;35425;51.142;17.178;2023-03-14T08:40:55;2.33;;;1.98;;
39970;SDS011;35425;51.142;17.178;2023-03-14T08:43:21;2.35;;;1.83;;
39970;SDS011;35425;51.142;17.178;2023-03-14T08:45:48;2.38;;;1.70;;
39970;SDS011;35425;51.142;17.178;2023-03-14T08:48:14;2.90;;;1.77;;
39970;SDS011;35425;51.142;17.178;2023-03-14T08:50:41;2.78;;;1.90;;
39970;SDS011;35425;51.142;17.178;2023-03-14T08:53:07;1.92;;;1.48;;
39970;SDS011;35425;51.142;17.178;2023-03-14T08:55:34;2.10;;;1.80;;
39970;SDS011;35425;51.142;17.178;2023-03-14T08:58:01;2.40;;;1.55;;
39970;SDS011;35425;51.142;17.178;2023-03-14T09:00:27;1.98;;;1.60;;
39970;SDS011;35425;51.142;17.178;2023-03-14T09:02:54;2.17;;;1.80;;
39970;SDS011;35425;51.142;17.178;2023-03-14T09:05:20;1.67;;;1.48;;
39970;SDS011;35425;51.142;17.178;2023-03-14T09:07:46;2.53;;;1.88;;
39970;SDS011;35425;51.142;17.178;2023-03-14T09:10:13;1.70;;;1.55;;
39970;SDS011;35425;51.142;17.178;2023-03-14T09:12:39;2.25;;;1.58;;
39970;SDS011;35425;51.142;17.178;2023-03-14T09:15:06;1.85;;;1.60;;
39970;SDS011;35425;51.142;17.178;2023-03-14T09:17:33;2.10;;;1.58;;
39970;SDS011;35425;51.142;17.178;2023-03-14T09:19:59;2.00;;;1.48;;
39970;SDS011;35425;51.142;17.178;2023-03-14T09:22:26;1.80;;;1.30;;
39970;SDS011;35425;51.142;17.178;2023-03-14T09:24:52;2.33;;;1.60;;
39970;SDS011;35425;51.142;17.178;2023-03-14T09:27:19;2.30;;;1.67;;
39970;SDS011;35425;51.142;17.178;2023-03-14T09:29:45;1.52;;;1.40;;
39970;SDS011;35425;51.142;17.178;2023-03-14T09:32:12;2.00;;;1.60;;
39970;SDS011;35425;51.142;17.178;2023-03-14T09:34:38;2.28;;;1.70;;
39970;SDS011;35425;51.142;17.178;2023-03-14T09:37:05;1.90;;;1.63;;
39970;SDS011;35425;51.142;17.178;2023-03-14T09:39:31;2.05;;;1.63;;
39970;SDS011;35425;51.142;17.178;2023-03-14T09:41:58;1.80;;;1.60;;
39970;SDS011;35425;51.142;17.178;2023-03-14T09:44:28;2.10;;;1.52;;
39970;SDS011;35425;51.142;17.178;2023-03-14T09:46:57;2.15;;;1.67;;
39970;SDS011;35425;51.142;17.178;2023-03-14T09:49:27;2.28;;;1.75;;
39970;SDS011;35425;51.142;17.178;2023-03-14T09:51:55;2.15;;;1.67;;
39970;SDS011;35425;51.142;17.178;2023-03-14T09:54:26;2.60;;;1.98;;
39970;SDS011;35425;51.142;17.178;2023-03-14T09:56:53;1.85;;;1.50;;
39970;SDS011;35425;51.142;17.178;2023-03-14T09:59:20;2.78;;;1.77;;
39970;SDS011;35425;51.142;17.178;2023-03-14T10:01:47;2.28;;;1.90;;
39970;SDS011;35425;51.142;17.178;2023-03-14T10:04:14;2.35;;;1.67;;
39970;SDS011;35425;51.142;17.178;2023-03-14T10:06:42;2.47;;;1.90;;
39970;SDS011;35425;51.142;17.178;2023-03-14T10:09:11;2.22;;;1.60;;
39970;SDS011;35425;51.142;17.178;2023-03-14T10:11:41;2.38;;;1.80;;
39970;SDS011;35425;51.142;17.178;2023-03-14T10:14:09;2.38;;;1.63;;
39970;SDS011;35425;51.142;17.178;2023-03-14T10:16:37;2.65;;;2.00;;
39970;SDS011;35425;51.142;17.178;2023-03-14T10:19:05;2.15;;;1.60;;
39970;SDS011;35425;51.142;17.178;2023-03-14T10:21:35;2.17;;;1.70;;
39970;SDS011;35425;51.142;17.178;2023-03-14T10:24:09;2.22;;;1.83;;
39970;SDS011;35425;51.142;17.178;2023-03-14T10:26:35;2.28;;;1.60;;
39970;SDS011;35425;51.142;17.178;2023-03-14T10:29:12;2.05;;;1.70;;
39970;SDS011;35425;51.142;17.178;2023-03-14T10:31:52;2.53;;;1.67;;
39970;SDS011;35425;51.142;17.178;2023-03-14T10:34:30;2.25;;;1.73;;
39970;SDS011;35425;51.142;17.178;2023-03-14T10:36:58;2.30;;;1.90;;
39970;SDS011;35425;51.142;17.178;2023-03-14T10:41:56;2.92;;;1.85;;
39970;SDS011;35425;51.142;17.178;2023-03-14T10:44:28;3.03;;;2.15;;
39970;SDS011;35425;51.142;17.178;2023-03-14T10:47:04;2.47;;;2.10;;
39970;SDS011;35425;51.142;17.178;2023-03-14T10:54:30;2.00;;;1.75;;
39970;SDS011;35425;51.142;17.178;2023-03-14T10:57:00;2.95;;;2.20;;
39970;SDS011;35425;51.142;17.178;2023-03-14T10:59:36;3.70;;;2.20;;
39970;SDS011;35425;51.142;17.178;2023-03-14T11:02:16;3.10;;;2.28;;
39970;SDS011;35425;51.142;17.178;2023-03-14T11:15:02;2.67;;;2.08;;
39970;SDS011;35425;51.142;17.178;2023-03-14T11:22:33;2.97;;;2.40;;
39970;SDS011;35425;51.142;17.178;2023-03-14T11:27:51;2.40;;;1.80;;
39970;SDS011;35425;51.142;17.178;2023-03-14T11:32:57;2.50;;;2.00;;
39970;SDS011;35425;51.142;17.178;2023-03-14T11:35:38;2.60;;;2.28;;
39970;SDS011;35425;51.142;17.178;2023-03-14T11:40:38;2.72;;;1.88;;
39970;SDS011;35425;51.142;17.178;2023-03-14T11:45:41;2.55;;;2.10;;
39970;SDS011;35425;51.142;17.178;2023-03-14T11:50:51;2.38;;;1.77;;
39970;SDS011;35425;51.142;17.178;2023-03-14T11:55:59;2.50;;;1.50;;
39970;SDS011;35425;51.142;17.178;2023-03-14T11:58:31;3.30;;;1.85;;
39970;SDS011;35425;51.142;17.178;2023-03-14T12:01:02;2.22;;;1.85;;
39970;SDS011;35425;51.142;17.178;2023-03-14T12:03:46;2.30;;;1.90;;
39970;SDS011;35425;51.142;17.178;2023-03-14T12:06:17;2.20;;;1.90;;
39970;SDS011;35425;51.142;17.178;2023-03-14T12:11:25;2.72;;;2.03;;
39970;SDS011;35425;51.142;17.178;2023-03-14T12:13:52;2.67;;;1.77;;
39970;SDS011;35425;51.142;17.178;2023-03-14T12:18:47;2.53;;;1.70;;
39970;SDS011;35425;51.142;17.178;2023-03-14T12:21:13;3.03;;;2.00;;
39970;SDS011;35425;51.142;17.178;2023-03-14T12:23:58;2.42;;;2.08;;
39970;SDS011;35425;51.142;17.178;2023-03-14T12:26:25;2.33;;;1.95;;
39970;SDS011;35425;51.142;17.178;2023-03-14T12:28:52;2.40;;;1.67;;
39970;SDS011;35425;51.142;17.178;2023-03-14T12:31:37;4.00;;;2.20;;
39970;SDS011;35425;51.142;17.178;2023-03-14T12:41:44;2.53;;;1.83;;
39970;SDS011;35425;51.142;17.178;2023-03-14T12:46:57;2.28;;;1.90;;
39970;SDS011;35425;51.142;17.178;2023-03-14T12:49:34;2.90;;;2.40;;
39970;SDS011;35425;51.142;17.178;2023-03-14T12:52:10;3.60;;;1.70;;
39970;SDS011;35425;51.142;17.178;2023-03-14T12:54:43;3.78;;;1.90;;
39970;SDS011;35425;51.142;17.178;2023-03-14T12:59:57;2.50;;;2.15;;
39970;SDS011;35425;51.142;17.178;2023-03-14T13:02:42;2.63;;;2.00;;
39970;SDS011;35425;51.142;17.178;2023-03-14T13:05:09;2.45;;;1.80;;
39970;SDS011;35425;51.142;17.178;2023-03-14T13:10:17;3.72;;;2.38;;
39970;SDS011;35425;51.142;17.178;2023-03-14T13:15:17;2.75;;;2.30;;
39970;SDS011;35425;51.142;17.178;2023-03-14T13:17:45;2.42;;;2.08;;
39970;SDS011;35425;51.142;17.178;2023-03-14T13:20:14;2.67;;;2.17;;
39970;SDS011;35425;51.142;17.178;2023-03-14T13:22:45;3.33;;;2.40;;
39970;SDS011;35425;51.142;17.178;2023-03-14T13:25:12;2.90;;;2.10;;
39970;SDS011;35425;51.142;17.178;2023-03-14T13:27:39;3.10;;;2.20;;
39970;SDS011;35425;51.142;17.178;2023-03-14T13:30:20;2.30;;;2.00;;
39970;SDS011;35425;51.142;17.178;2023-03-14T13:32:48;3.30;;;2.17;;
39970;SDS011;35425;51.142;17.178;2023-03-14T13:35:19;2.28;;;1.90;;
39970;SDS011;35425;51.142;17.178;2023-03-14T13:37:46;3.00;;;2.38;;
39970;SDS011;35425;51.142;17.178;2023-03-14T13:40:24;3.28;;;2.35;;
39970;SDS011;35425;51.142;17.178;2023-03-14T13:42:59;3.17;;;2.10;;
39970;SDS011;35425;51.142;17.178;2023-03-14T13:45:25;5.10;;;2.40;;
39970;SDS011;35425;51.142;17.178;2023-03-14T13:47:52;2.38;;;1.98;;
39970;SDS011;35425;51.142;17.178;2023-03-14T13:50:18;2.85;;;2.15;;
39970;SDS011;35425;51.142;17.178;2023-03-14T13:52:45;2.50;;;2.05;;
39970;SDS011;35425;51.142;17.178;2023-03-14T13:55:16;2.05;;;1.85;;
39970;SDS011;35425;51.142;17.178;2023-03-14T13:57:50;1.95;;;1.67;;
39970;SDS011;35425;51.142;17.178;2023-03-14T14:00:24;2.97;;;2.28;;
39970;SDS011;35425;51.142;17.178;2023-03-14T14:02:58;1.92;;;1.60;;
39970;SDS011;35425;51.142;17.178;2023-03-14T14:05:26;3.40;;;2.03;;
39970;SDS011;35425;51.142;17.178;2023-03-14T14:07:53;2.00;;;1.80;;
39970;SDS011;35425;51.142;17.178;2023-03-14T14:10:20;1.77;;;1.67;;
39970;SDS011;35425;51.142;17.178;2023-03-14T14:12:49;2.35;;;1.88;;
39970;SDS011;35425;51.142;17.178;2023-03-14T14:15:19;2.67;;;1.90;;
39970;SDS011;35425;51.142;17.178;2023-03-14T14:17:53;2.00;;;1.80;;
39970;SDS011;35425;51.142;17.178;2023-03-14T14:20:28;2.33;;;1.70;;
39970;SDS011;35425;51.142;17.178;2023-03-14T14:22:58;2.45;;;1.85;;
39970;SDS011;35425;51.142;17.178;2023-03-14T14:25:25;2.28;;;1.90;;
39970;SDS011;35425;51.142;17.178;2023-03-14T14:27:51;3.08;;;1.95;;
39970;SDS011;35425;51.142;17.178;2023-03-14T14:32:45;2.63;;;1.92;;
39970;SDS011;35425;51.142;17.178;2023-03-14T14:35:25;1.80;;;1.48;;
39970;SDS011;35425;51.142;17.178;2023-03-14T14:37:52;2.03;;;1.77;;
39970;SDS011;35425;51.142;17.178;2023-03-14T14:40:25;2.53;;;2.20;;
39970;SDS011;35425;51.142;17.178;2023-03-14T14:42:53;2.97;;;2.03;;
39970;SDS011;35425;51.142;17.178;2023-03-14T14:45:20;2.05;;;1.85;;
39970;SDS011;35425;51.142;17.178;2023-03-14T14:47:49;2.13;;;1.65;;
39970;SDS011;35425;51.142;17.178;2023-03-14T14:50:20;1.98;;;1.50;;
39970;SDS011;35425;51.142;17.178;2023-03-14T14:52:47;3.17;;;1.65;;
39970;SDS011;35425;51.142;17.178;2023-03-14T14:55:19;2.40;;;1.70;;
39970;SDS011;35425;51.142;17.178;2023-03-14T14:57:51;2.13;;;1.90;;
39970;SDS011;35425;51.142;17.178;2023-03-14T15:00:20;2.03;;;1.60;;
39970;SDS011;35425;51.142;17.178;2023-03-14T15:02:47;2.15;;;1.73;;
39970;SDS011;35425;51.142;17.178;2023-03-14T15:05:15;2.40;;;2.00;;
39970;SDS011;35425;51.142;17.178;2023-03-14T15:07:42;3.00;;;1.83;;
39970;SDS011;35425;51.142;17.178;2023-03-14T15:10:10;2.05;;;1.80;;
39970;SDS011;35425;51.142;17.178;2023-03-14T15:12:37;2.35;;;1.70;;
39970;SDS011;35425;51.142;17.178;2023-03-14T15:15:03;2.88;;;1.77;;
39970;SDS011;35425;51.142;17.178;2023-03-14T15:17:30;2.58;;;1.95;;
39970;SDS011;35425;51.142;17.178;2023-03-14T15:19:57;2.60;;;2.00;;
39970;SDS011;35425;51.142;17.178;2023-03-14T15:22:24;2.22;;;1.88;;
39970;SDS011;35425;51.142;17.178;2023-03-14T15:24:51;3.03;;;2.40;;
39970;SDS011;35425;51.142;17.178;2023-03-14T15:27:17;2.85;;;2.22;;
39970;SDS011;35425;51.142;17.178;2023-03-14T15:29:44;4.05;;;2.70;;
39970;SDS011;35425;51.142;17.178;2023-03-14T15:32:14;3.38;;;2.10;;
39970;SDS011;35425;51.142;17.178;2023-03-14T15:34:42;3.78;;;2.90;;
39970;SDS011;35425;51.142;17.178;2023-03-14T15:37:11;3.28;;;2.47;;
39970;SDS011;35425;51.142;17.178;2023-03-14T15:39:39;2.58;;;2.38;;
39970;SDS011;35425;51.142;17.178;2023-03-14T15:42:05;3.40;;;2.80;;
39970;SDS011;35425;51.142;17.178;2023-03-14T15:44:32;3.47;;;2.78;;
39970;SDS011;35425;51.142;17.178;2023-03-14T15:46:58;4.55;;;2.92;;